Skip Navigation Links
NOAA logo - Click to go to the NOAA homepage
NOAA's National Weather Service
Alaska Aviation Weather Unit
  NWS logo - Click to go to the NWS homepage
Left Navbar Graphic     02 AKDT = 10 GMT

   
NOAA is celebrating 200 years of science, service, and stewardship. Visit the NOAA 200th celebration Web site to learn more.
USA.gov is the U.S. Government's official Web portal to all Federal, state and local government Web resources and services.
Facebook
NWS on Facebook

AAWU Home :: Display TAF Add Bookmark
METAR PAIM 270455Z AUTO 18004KT 10SM CLR M11/M20 A2983=

METAR PAIM 270555Z AUTO 16005KT 10SM CLR M12/M21 A2982=

METAR PAIM 270655Z AUTO 21004KT 10SM CLR M11/M21 A2982=

METAR PAIM 270755Z AUTO 10005KT 10SM CLR M12/M21 A2982=

METAR PAIM 270855Z AUTO VRB04KT 10SM CLR M12/M20 A2982=

METAR PAIM 270955Z AUTO 06007KT 350V100 10SM CLR M11/M20 A2981=


NOAA's National Weather Service
Alaska Aviation Weather Unit
6930 Sand Lake Road
Anchorage, AK 99502-1845
Disclaimer
Credits
Glossary
Privacy Policy
About Us
Career Opportunities
Contact AAWU Internet Services Site last modified: April, 17th 2012